Geneva Cointrin International Airport LSGG

Flugplatz Daten

Name: Geneva Cointrin International Airport

Ident: LSGG

Lat: 46,23809814

Long: 6,108950138

Platzhöhe: 1411 ft

IataCode: GVA

City: Geneva

Homepage: http://www.gva.ch/

Metar

2021/10/25 19:20
LSGG 251920Z VRB01KT CAVOK 08/07 Q1022 NOSIG

Taf

2021/10/25 18:33
TAF TAF LSGG 251725Z 2518/2624 VRB02KT 9999 FEW050 TX14/2615Z TN05/2604Z PROB30
TEMPO 2601/2606 RA
Gewünschte Webcam nicht vorhanden? Dann fügen Sie eine hinzu. Sie wird dann so schnell wie möglich freigeschaltet
Url: Title: